Terminal Aerodrome Forecast
Issued by NWS Rapid City, SD

Home | Current Version | Previous Version | Text Only | Print | Product List | Glossary Off
Versions: 1 2 3 4 5 6 7 8 9 10 11 12 13 14 15 16 17 18 19 20 21 22 23 24 25 26 27 28 29 30 31 32

000
FTUS43 KUNR 301300 AAB
TAFRAP
TAF AMD
KRAP 301347Z 3014/0112 35015G25KT 2SM -RA BR FEW003 BKN008 OVC025
     FM301800 33025G35KT P6SM -SHRA BKN040
     FM302200 31023KT P6SM BKN060
     FM010200 31012KT P6SM OVC100=

USA.gov is the U.S. government's official web portal to all federal, state and local government web resources and services.